Time;durP1;ratioP1;P1;durP2;ratioP2;P2;SDS_P1;SDS_P2;PMS_P1;PMS_P2;Temp;Humidity;BMP_temperature;BMP_pressure;BME280_temperature;BME280_humidity;BME280_pressure;Samples;Min_cycle;Max_cycle;Signal;HPM_P1;HPM_P2
2021/01/17 00:00:22;;;;;;;1.58;1.42;;;-0.70;99.90;;;;;;5053871;28;20762;-55
2021/01/17 00:02:50;;;;;;;3.78;2.10;;;-0.80;99.90;;;;;;5053405;28;20181;-51
2021/01/17 00:05:20;;;;;;;2.28;2.08;;;-0.80;99.90;;;;;;5052566;28;20554;-48
2021/01/17 00:07:48;;;;;;;4.97;3.13;;;-0.90;99.90;;;;;;5034889;28;20638;-48
2021/01/17 00:10:17;;;;;;;3.60;2.08;;;-0.90;99.90;;;;;;5052838;28;20201;-49
2021/01/17 00:15:34;;;;;;;7.72;2.63;;;-1.10;99.90;;;;;;5050707;28;20231;-52
2021/01/17 00:18:01;;;;;;;3.28;2.63;;;-1.20;99.90;;;;;;5054063;28;20173;-53
2021/01/17 00:20:29;;;;;;;3.17;2.22;;;-1.10;99.90;;;;;;5054193;28;20216;-51
2021/01/17 00:23:00;;;;;;;3.17;2.55;;;-1.00;99.90;;;;;;5052801;28;20309;-51
2021/01/17 00:25:28;;;;;;;4.40;2.42;;;-1.10;99.90;;;;;;5055108;28;20191;-51
2021/01/17 00:28:01;;;;;;;4.55;3.40;;;-1.10;99.90;;;;;;5055538;28;20176;-51
2021/01/17 00:30:31;;;;;;;4.05;3.65;;;-1.10;99.90;;;;;;5056953;28;20208;-51
2021/01/17 00:33:01;;;;;;;4.13;2.63;;;-1.10;99.90;;;;;;5055613;28;20173;-57
2021/01/17 00:35:30;;;;;;;4.28;2.63;;;-1.00;99.90;;;;;;5054381;28;20181;-52
2021/01/17 00:37:59;;;;;;;4.15;3.70;;;-1.10;99.90;;;;;;5053411;28;20284;-53
2021/01/17 00:40:27;;;;;;;7.65;3.40;;;-1.20;99.90;;;;;;5053270;28;20213;-51
2021/01/17 00:42:55;;;;;;;5.07;3.70;;;-1.20;99.90;;;;;;5052805;28;20181;-50
2021/01/17 00:45:25;;;;;;;1.30;1.20;;;-1.20;99.90;;;;;;5053254;28;20196;-53
2021/01/17 00:47:52;;;;;;;4.25;3.00;;;-1.20;99.90;;;;;;5035471;28;20185;-49
2021/01/17 00:50:25;;;;;;;5.82;4.75;;;-1.10;99.90;;;;;;5035474;28;20303;-52
2021/01/17 00:52:56;;;;;;;4.43;2.20;;;-1.10;99.90;;;;;;5034756;28;20751;-53
2021/01/17 00:55:32;;;;;;;5.03;3.22;;;-1.00;99.90;;;;;;5034235;28;20189;-49
2021/01/17 00:58:05;;;;;;;4.78;2.17;;;-1.00;99.90;;;;;;5034035;28;20197;-49
2021/01/17 01:00:32;;;;;;;4.50;2.28;;;-1.10;99.90;;;;;;5034681;28;20224;-47
2021/01/17 01:03:11;;;;;;;9.25;2.53;;;-1.10;99.90;;;;;;5038078;28;20188;-54
2021/01/17 01:05:39;;;;;;;5.60;2.30;;;-1.20;99.90;;;;;;5038355;28;20243;-55
2021/01/17 01:08:07;;;;;;;3.83;3.13;;;-1.20;99.90;;;;;;5055896;28;20576;-53
2021/01/17 01:10:35;;;;;;;4.30;2.05;;;-1.30;99.90;;;;;;5037788;28;20294;-55
2021/01/17 01:13:02;;;;;;;5.25;3.10;;;-1.30;99.90;;;;;;5055619;28;20173;-55
2021/01/17 01:15:29;;;;;;;5.88;3.28;;;-1.40;99.90;;;;;;5055109;28;20295;-55
2021/01/17 01:17:56;;;;;;;3.65;1.85;;;-1.40;99.90;;;;;;5055866;28;20200;-53
2021/01/17 01:20:23;;;;;;;5.05;2.92;;;-1.40;99.90;;;;;;5055584;28;20223;-50
2021/01/17 01:22:51;;;;;;;1.50;1.35;;;-1.40;99.90;;;;;;5055828;28;20177;-51
2021/01/17 01:25:19;;;;;;;4.63;3.13;;;-1.40;99.90;;;;;;5037972;28;20180;-55
2021/01/17 01:27:47;;;;;;;5.28;3.15;;;-1.40;99.90;;;;;;5056109;28;20566;-52
2021/01/17 01:30:16;;;;;;;4.57;2.15;;;-1.30;99.90;;;;;;5055847;28;20204;-50
2021/01/17 01:32:43;;;;;;;2.80;2.08;;;-1.10;99.90;;;;;;5056678;28;20205;-52
2021/01/17 01:35:11;;;;;;;4.15;2.80;;;-1.10;99.90;;;;;;5055555;28;20189;-51
2021/01/17 01:37:38;;;;;;;2.22;1.75;;;-1.20;99.90;;;;;;5055016;28;20185;-49
2021/01/17 01:40:08;;;;;;;4.50;3.10;;;-1.30;99.90;;;;;;5054841;28;20281;-49
2021/01/17 01:42:35;;;;;;;2.90;2.70;;;-1.30;99.90;;;;;;5054930;28;20192;-52
2021/01/17 01:45:02;;;;;;;3.72;3.53;;;-1.30;99.90;;;;;;5054961;28;20181;-53
2021/01/17 01:47:29;;;;;;;4.68;2.58;;;-1.30;99.90;;;;;;5054571;28;20199;-49
2021/01/17 01:49:58;;;;;;;6.57;3.67;;;-1.10;99.90;;;;;;5055154;28;20216;-48
2021/01/17 01:52:26;;;;;;;6.40;3.78;;;-1.00;99.90;;;;;;5055266;28;20189;-50
2021/01/17 01:54:53;;;;;;;4.43;4.03;;;-0.80;99.90;;;;;;5055014;28;20184;-50
2021/01/17 01:57:21;;;;;;;3.10;2.00;;;-0.80;99.90;;;;;;5054776;28;20195;-48
2021/01/17 01:59:48;;;;;;;4.68;3.38;;;-1.00;99.90;;;;;;5054025;28;20224;-46
2021/01/17 02:02:15;;;;;;;6.63;3.20;;;-1.10;99.90;;;;;;5054022;28;20181;-49
2021/01/17 02:04:43;;;;;;;3.20;2.30;;;-1.00;99.90;;;;;;5054302;28;20256;-49
2021/01/17 02:07:35;;;;;;;4.95;3.25;;;-0.80;99.90;;;;;;5054239;28;20185;-49
2021/01/17 02:10:03;;;;;;;5.13;3.65;;;-0.90;99.90;;;;;;5053962;28;20685;-49
2021/01/17 02:12:34;;;;;;;2.80;2.03;;;-1.00;99.90;;;;;;5053497;28;20181;-47
2021/01/17 02:15:06;;;;;;;3.90;2.65;;;-1.00;99.90;;;;;;5036319;28;20767;-50
2021/01/17 02:17:34;;;;;;;4.07;2.22;;;-1.00;99.90;;;;;;5054515;28;20177;-50
2021/01/17 02:20:09;;;;;;;2.90;2.42;;;-0.90;99.90;;;;;;5054466;28;20220;-49
2021/01/17 02:22:44;;;;;;;4.68;2.75;;;-0.90;99.90;;;;;;5054143;28;20204;-49
2021/01/17 02:25:14;;;;;;;4.40;4.00;;;-1.00;99.90;;;;;;5054283;28;20176;-49
2021/01/17 02:27:43;;;;;;;5.65;3.53;;;-0.90;99.90;;;;;;5053994;28;20181;-49
2021/01/17 02:30:12;;;;;;;3.10;1.95;;;-1.00;99.90;;;;;;5053369;28;20217;-46
2021/01/17 02:32:46;;;;;;;4.95;3.17;;;-1.10;99.90;;;;;;5052926;28;20169;-46
2021/01/17 02:35:14;;;;;;;5.35;4.07;;;-1.10;99.90;;;;;;5053081;28;20607;-52
2021/01/17 02:37:53;;;;;;;6.00;4.20;;;-0.90;99.90;;;;;;5052703;28;20177;-46
2021/01/17 02:40:43;;;;;;;5.85;3.85;;;-0.90;99.90;;;;;;5052859;28;20224;-46
2021/01/17 02:43:10;;;;;;;3.40;3.10;;;-1.00;99.90;;;;;;5052722;28;20177;-47
2021/01/17 02:45:38;;;;;;;8.90;3.40;;;-1.10;99.90;;;;;;5034924;28;20669;-46
2021/01/17 02:48:06;;;;;;;5.15;3.00;;;-1.20;99.90;;;;;;5052808;28;20198;-48
2021/01/17 02:50:33;;;;;;;6.22;2.50;;;-1.30;99.90;;;;;;5052843;28;20209;-51
2021/01/17 02:53:07;;;;;;;8.60;5.30;;;-1.10;99.90;;;;;;5052831;28;20188;-46
2021/01/17 02:55:37;;;;;;;2.55;1.98;;;-1.00;99.90;;;;;;5052619;28;20201;-49
2021/01/17 02:58:09;;;;;;;3.08;2.35;;;-1.10;99.90;;;;;;5053142;28;20688;-50
2021/01/17 03:00:40;;;;;;;4.35;2.90;;;-1.00;99.90;;;;;;5052344;28;20580;-51
2021/01/17 03:03:08;;;;;;;4.13;3.10;;;-0.80;99.90;;;;;;5052697;28;20776;-46
2021/01/17 03:05:37;;;;;;;2.60;1.65;;;-0.80;99.90;;;;;;5052412;28;20177;-46
2021/01/17 03:08:06;;;;;;;5.75;3.78;;;-0.90;99.90;;;;;;5052412;28;20192;-47
2021/01/17 03:10:33;;;;;;;3.90;3.40;;;-1.00;99.90;;;;;;5052552;28;20205;-46
2021/01/17 03:13:01;;;;;;;4.30;2.67;;;-1.00;99.90;;;;;;5053281;28;20263;-52
2021/01/17 03:15:33;;;;;;;2.30;2.10;;;-1.00;99.90;;;;;;5053785;28;20220;-54
2021/01/17 03:18:01;;;;;;;6.68;3.33;;;-1.00;99.90;;;;;;5055511;28;20530;-51
2021/01/17 03:20:28;;;;;;;4.63;2.22;;;-1.10;99.90;;;;;;5036906;28;20221;-54
2021/01/17 03:22:55;;;;;;;5.22;3.72;;;-1.20;99.90;;;;;;5054662;28;20177;-58
2021/01/17 03:25:22;;;;;;;3.10;2.65;;;-1.20;99.90;;;;;;5053764;28;20177;-54
2021/01/17 03:27:50;;;;;;;4.03;3.63;;;-1.30;99.90;;;;;;5054212;28;20267;-53
2021/01/17 03:30:17;;;;;;;4.95;1.83;;;-1.20;99.90;;;;;;5054058;28;20219;-53
2021/01/17 03:32:45;;;;;;;2.47;2.28;;;-1.30;99.90;;;;;;5064826;23;20185;-59
2021/01/17 03:35:13;;;;;;;3.03;1.70;;;-1.30;99.90;;;;;;5036403;28;20178;-59
2021/01/17 03:37:41;;;;;;;5.95;3.40;;;-1.30;99.90;;;;;;5035615;28;20178;-58
2021/01/17 03:40:09;;;;;;;4.38;2.78;;;-1.30;99.90;;;;;;5034569;28;20236;-57
2021/01/17 03:42:36;;;;;;;3.63;2.72;;;-1.30;99.90;;;;;;5032505;28;20188;-60
2021/01/17 03:45:03;;;;;;;4.78;2.92;;;-1.30;99.90;;;;;;5032189;28;20185;-57
2021/01/17 03:47:31;;;;;;;5.32;2.35;;;-1.40;99.90;;;;;;5031947;28;20193;-57
2021/01/17 03:49:59;;;;;;;3.80;2.58;;;-1.30;99.90;;;;;;5031634;28;20211;-56
2021/01/17 03:52:26;;;;;;;2.38;1.90;;;-1.40;99.90;;;;;;5031454;28;20201;-58
2021/01/17 03:54:53;;;;;;;2.30;1.60;;;-1.40;99.90;;;;;;5031854;28;20212;-56
2021/01/17 03:57:20;;;;;;;6.53;4.45;;;-1.40;99.90;;;;;;5032256;28;20642;-57
2021/01/17 03:59:47;;;;;;;7.68;3.22;;;-1.40;99.90;;;;;;5032068;28;20658;-56
2021/01/17 04:02:14;;;;;;;4.25;2.92;;;-1.60;99.90;;;;;;5031635;28;20174;-58
2021/01/17 04:04:42;;;;;;;2.83;2.50;;;-1.60;99.90;;;;;;5031656;28;20261;-59
2021/01/17 04:07:10;;;;;;;5.90;4.03;;;-1.40;99.90;;;;;;5031495;28;20185;-59
2021/01/17 04:09:37;;;;;;;3.78;2.67;;;-1.30;99.90;;;;;;5031537;28;20269;-60
2021/01/17 04:12:05;;;;;;;10.73;4.20;;;-1.30;99.90;;;;;;5030775;28;20212;-60
2021/01/17 04:14:32;;;;;;;3.05;2.67;;;-1.40;99.90;;;;;;5032046;28;20181;-58
2021/01/17 04:17:00;;;;;;;4.85;4.35;;;-1.50;99.90;;;;;;5031927;28;20543;-57
2021/01/17 04:19:27;;;;;;;1.55;1.33;;;-1.70;99.90;;;;;;5031647;28;20268;-58
2021/01/17 04:21:55;;;;;;;5.20;3.85;;;-1.70;99.90;;;;;;5031648;28;20697;-58
2021/01/17 04:24:23;;;;;;;7.40;3.22;;;-1.40;99.90;;;;;;5031346;28;20555;-54
2021/01/17 04:26:56;;;;;;;2.45;1.95;;;-1.30;99.90;;;;;;5031346;28;20191;-58
2021/01/17 04:29:23;;;;;;;3.50;2.85;;;-1.50;99.90;;;;;;5031512;28;20252;-63
2021/01/17 04:31:50;;;;;;;2.00;1.90;;;-1.50;99.90;;;;;;5013827;28;20214;-58
2021/01/17 04:34:18;;;;;;;3.13;2.05;;;-1.60;99.90;;;;;;5031797;28;20688;-57
2021/01/17 04:36:47;;;;;;;4.85;2.90;;;-1.70;99.90;;;;;;5034707;28;20170;-58
2021/01/17 04:39:14;;;;;;;2.78;2.35;;;-1.70;99.90;;;;;;5035871;28;20634;-59
2021/01/17 04:41:44;;;;;;;6.53;2.47;;;-1.80;99.90;;;;;;5035287;28;20213;-58
2021/01/17 04:44:13;;;;;;;1.77;1.65;;;-1.60;99.90;;;;;;5035608;28;20596;-55
2021/01/17 04:46:40;;;;;;;3.83;2.55;;;-1.60;99.90;;;;;;5035216;28;20224;-56
2021/01/17 04:49:09;;;;;;;6.35;2.85;;;-1.40;99.90;;;;;;5035160;28;20181;-59
2021/01/17 04:51:37;;;;;;;6.80;3.22;;;-1.30;99.90;;;;;;5035363;28;20624;-59
2021/01/17 04:54:05;;;;;;;3.40;2.88;;;-1.20;99.90;;;;;;5035014;28;20169;-56
2021/01/17 04:56:33;;;;;;;63.20;24.42;;;-1.30;99.90;;;;;;5035357;28;20170;-57
2021/01/17 04:59:12;;;;;;;16.58;7.20;;;-1.40;99.90;;;;;;5035041;28;20592;-58
2021/01/17 05:01:50;;;;;;;22.40;11.43;;;-1.40;99.90;;;;;;5034951;28;20712;-60
2021/01/17 05:04:42;;;;;;;8.20;4.25;;;-1.30;99.90;;;;;;5035116;28;20272;-57
2021/01/17 05:07:15;;;;;;;8.73;2.95;;;-1.20;99.90;;;;;;5034839;28;20178;-60
2021/01/17 05:09:49;;;;;;;4.40;1.95;;;-1.30;99.90;;;;;;5035018;28;20177;-62
2021/01/17 05:12:16;;;;;;;2.55;2.17;;;-1.30;99.90;;;;;;5034421;28;20210;-59
2021/01/17 05:14:54;;;;;;;3.85;2.28;;;-1.30;99.90;;;;;;5034610;28;20236;-58
2021/01/17 05:17:22;;;;;;;3.70;2.67;;;-1.20;99.90;;;;;;5034522;28;20184;-59
2021/01/17 05:19:50;;;;;;;2.88;2.67;;;-1.20;99.90;;;;;;5034737;28;20210;-59
2021/01/17 05:22:20;;;;;;;2.40;1.70;;;-1.20;99.90;;;;;;5033761;28;20189;-58
2021/01/17 05:24:52;;;;;;;5.90;4.32;;;-1.00;99.90;;;;;;5034447;28;20186;-58
2021/01/17 05:27:19;;;;;;;4.28;2.53;;;-0.90;99.90;;;;;;5034168;28;20197;-57
2021/01/17 05:29:47;;;;;;;2.97;2.28;;;-1.00;99.90;;;;;;5033882;28;20193;-55
2021/01/17 05:32:15;;;;;;;6.25;3.97;;;-1.10;99.90;;;;;;5034190;28;20177;-56
2021/01/17 05:34:43;;;;;;;2.95;2.65;;;-1.10;99.90;;;;;;5034835;28;20201;-59
2021/01/17 05:37:11;;;;;;;4.40;2.67;;;-1.10;99.90;;;;;;5033818;28;20177;-55
2021/01/17 05:39:55;;;;;;;7.65;3.90;;;-1.00;99.90;;;;;;5034532;28;20201;-56
2021/01/17 05:42:23;;;;;;;3.78;3.42;;;-0.90;99.90;;;;;;5033689;28;20174;-57
2021/01/17 05:44:55;;;;;;;3.05;2.75;;;-1.10;99.90;;;;;;5034050;28;20184;-55
2021/01/17 05:47:25;;;;;;;2.80;2.60;;;-1.10;99.90;;;;;;5033205;28;20199;-54
2021/01/17 05:50:05;;;;;;;2.75;1.67;;;-0.90;99.90;;;;;;5032813;28;20591;-54
2021/01/17 05:52:34;;;;;;;4.47;3.15;;;-0.70;99.90;;;;;;5033908;28;20196;-58
2021/01/17 05:55:01;;;;;;;5.93;3.75;;;-0.50;99.90;;;;;;5034497;28;20200;-60
2021/01/17 05:57:31;;;;;;;7.15;4.68;;;-0.60;99.90;;;;;;5037470;28;20185;-58
2021/01/17 06:00:00;;;;;;;2.53;2.33;;;-0.50;99.90;;;;;;5034534;28;20225;-58
2021/01/17 06:02:28;;;;;;;4.38;4.05;;;-0.60;99.90;;;;;;5036992;28;20740;-58
2021/01/17 06:04:57;;;;;;;3.70;2.55;;;-0.70;99.90;;;;;;5036687;28;20174;-59
2021/01/17 06:07:25;;;;;;;6.53;3.17;;;-0.60;99.90;;;;;;5035948;28;20239;-59
2021/01/17 06:09:58;;;;;;;21.88;10.40;;;-0.70;99.90;;;;;;5034670;28;20209;-61
2021/01/17 06:12:33;;;;;;;33.42;10.45;;;-1.00;99.90;;;;;;5034290;28;20309;-56
2021/01/17 06:15:06;;;;;;;10.73;6.47;;;-0.80;99.90;;;;;;5033669;28;20256;-57
2021/01/17 06:17:35;;;;;;;3.90;2.83;;;-0.70;99.90;;;;;;5033684;28;20293;-55
2021/01/17 06:20:05;;;;;;;4.07;3.30;;;-0.80;99.90;;;;;;5033244;28;20232;-54
2021/01/17 06:22:33;;;;;;;4.22;3.88;;;-0.90;99.90;;;;;;5033277;28;20204;-54
2021/01/17 06:25:02;;;;;;;4.80;2.17;;;-0.90;99.90;;;;;;5033341;28;20174;-58
2021/01/17 06:27:30;;;;;;;3.70;2.63;;;-1.00;99.90;;;;;;5033264;28;20190;-58
2021/01/17 06:29:57;;;;;;;5.70;4.05;;;-1.10;99.90;;;;;;5036150;28;20224;-57
2021/01/17 06:32:29;;;;;;;5.28;3.03;;;-1.10;99.90;;;;;;5035443;28;20677;-58
2021/01/17 06:34:58;;;;;;;4.30;3.30;;;-0.80;99.90;;;;;;5035101;28;20261;-60
2021/01/17 06:37:28;;;;;;;5.47;2.00;;;-0.80;99.90;;;;;;5035084;28;20193;-59
2021/01/17 06:39:57;;;;;;;4.65;3.85;;;-0.70;99.90;;;;;;5033882;28;20585;-59
2021/01/17 06:42:25;;;;;;;7.07;4.40;;;-0.90;99.90;;;;;;5034754;28;20604;-58
2021/01/17 06:44:53;;;;;;;5.57;3.05;;;-0.90;99.90;;;;;;5016025;28;20247;-58
2021/01/17 06:47:21;;;;;;;5.50;3.53;;;-1.00;99.90;;;;;;5032722;28;20184;-58
2021/01/17 06:49:51;;;;;;;2.45;2.25;;;-0.90;99.90;;;;;;5032835;28;20648;-60
2021/01/17 06:52:18;;;;;;;4.88;3.35;;;-0.90;99.90;;;;;;5032569;28;20189;-60
2021/01/17 06:54:47;;;;;;;3.17;2.60;;;-0.80;99.90;;;;;;5033141;28;20276;-58
2021/01/17 06:57:15;;;;;;;3.83;3.17;;;-0.70;99.90;;;;;;5032377;28;20721;-59
2021/01/17 06:59:44;;;;;;;8.52;3.33;;;-0.80;99.90;;;;;;5032178;28;20194;-55
2021/01/17 07:02:40;;;;;;;5.97;3.00;;;-0.60;99.90;;;;;;5032148;28;20181;-58
2021/01/17 07:05:13;;;;;;;3.00;2.00;;;-0.70;99.90;;;;;;5032105;28;20606;-59
2021/01/17 07:07:59;;;;;;;6.72;5.45;;;-0.80;99.90;;;;;;5032050;28;20189;-57
2021/01/17 07:10:26;;;;;;;4.60;3.83;;;-0.70;99.90;;;;;;5032229;28;20865;-55
2021/01/17 07:12:58;;;;;;;7.88;2.75;;;-0.70;99.90;;;;;;5031684;28;20579;-59
2021/01/17 07:15:26;;;;;;;6.55;2.53;;;-0.80;99.90;;;;;;5032059;28;20280;-58
2021/01/17 07:18:00;;;;;;;4.82;4.43;;;-0.80;99.90;;;;;;5031768;28;20174;-60
2021/01/17 07:20:33;;;;;;;4.22;2.95;;;-0.60;99.90;;;;;;5031814;28;20205;-57
2021/01/17 07:23:02;;;;;;;2.88;2.58;;;-0.70;99.90;;;;;;5031967;28;20173;-58
2021/01/17 07:25:30;;;;;;;3.70;2.78;;;-0.60;99.90;;;;;;5032028;28;20217;-58
2021/01/17 07:28:09;;;;;;;8.57;6.10;;;-0.70;99.90;;;;;;5031812;28;20678;-59
2021/01/17 07:30:50;;;;;;;12.55;10.40;;;-0.50;99.90;;;;;;5032114;28;20282;-56
2021/01/17 07:33:23;;;;;;;12.45;7.55;;;-0.70;99.90;;;;;;5032073;28;20684;-59
2021/01/17 07:35:52;;;;;;;74.75;34.70;;;-0.70;99.90;;;;;;5032333;28;20720;-56
2021/01/17 07:38:22;;;;;;;21.02;12.60;;;-0.70;99.90;;;;;;5031969;28;20220;-62
2021/01/17 07:40:54;;;;;;;10.95;4.57;;;-0.70;99.90;;;;;;5032385;28;20275;-55
2021/01/17 07:43:24;;;;;;;18.17;7.93;;;-0.50;99.90;;;;;;5032120;28;20264;-56
2021/01/17 07:45:52;;;;;;;60.47;27.95;;;-0.70;99.90;;;;;;5032025;28;20611;-61
2021/01/17 07:48:20;;;;;;;10.65;5.97;;;-0.80;99.90;;;;;;5030593;28;20193;-60
2021/01/17 07:50:49;;;;;;;7.28;5.85;;;-0.60;99.90;;;;;;5031819;28;20205;-57
2021/01/17 07:53:43;;;;;;;8.95;2.58;;;-0.50;99.90;;;;;;5031962;28;20189;-58
2021/01/17 07:56:12;;;;;;;12.07;5.63;;;-0.50;99.90;;;;;;5031785;28;20174;-59
2021/01/17 07:58:43;;;;;;;10.10;6.88;;;-0.30;99.90;;;;;;5030503;28;20185;-60
2021/01/17 08:01:47;;;;;;;6.07;2.97;;;-0.50;99.90;;;;;;5032155;28;20210;-59
2021/01/17 08:04:30;;;;;;;15.00;5.78;;;-0.50;99.90;;;;;;5032302;28;20173;-56
2021/01/17 08:06:59;;;;;;;3.63;3.22;;;-0.80;99.90;;;;;;5032297;28;20173;-59
2021/01/17 08:09:46;;;;;;;9.60;4.65;;;-0.80;99.90;;;;;;5032378;28;20181;-59
2021/01/17 08:12:30;;;;;;;5.20;3.58;;;-0.70;99.90;;;;;;5038569;28;20173;-60
2021/01/17 08:15:17;;;;;;;5.63;4.95;;;-0.60;99.90;;;;;;5039021;28;20646;-60
2021/01/17 08:17:45;;;;;;;4.40;3.97;;;-0.50;99.90;;;;;;5038587;28;20173;-60
2021/01/17 08:20:22;;;;;;;9.75;4.55;;;-0.60;99.90;;;;;;5037927;28;20223;-58
2021/01/17 08:22:49;;;;;;;5.72;2.53;;;-0.50;99.90;;;;;;5037957;28;20588;-59
2021/01/17 08:25:48;;;;;;;3.03;2.25;;;-0.70;99.90;;;;;;5037847;28;20662;-59
2021/01/17 08:28:40;;;;;;;4.32;2.90;;;-0.70;99.90;;;;;;5037625;28;20186;-56
2021/01/17 08:31:38;;;;;;;5.72;3.63;;;-0.70;99.90;;;;;;5037787;28;20208;-59
2021/01/17 08:34:11;;;;;;;3.08;2.78;;;-0.70;99.90;;;;;;5037923;28;20564;-57
2021/01/17 08:36:39;;;;;;;3.88;3.50;;;-0.70;99.90;;;;;;5038017;28;20197;-58
2021/01/17 08:39:06;;;;;;;2.60;1.55;;;-0.70;99.90;;;;;;5038050;28;20736;-55
2021/01/17 08:41:38;;;;;;;3.47;2.60;;;-0.70;99.90;;;;;;5037939;28;20213;-57
2021/01/17 08:44:11;;;;;;;9.43;4.93;;;-0.60;99.90;;;;;;5038505;28;20213;-57
2021/01/17 08:46:40;;;;;;;3.38;2.22;;;-0.40;99.90;;;;;;5037988;28;20174;-56
2021/01/17 08:49:09;;;;;;;6.65;3.17;;;-0.40;99.90;;;;;;5037676;28;20180;-57
2021/01/17 08:51:36;;;;;;;3.45;3.15;;;-0.50;99.90;;;;;;5038165;28;20630;-57
2021/01/17 08:54:25;;;;;;;9.13;3.25;;;-0.60;99.90;;;;;;5019773;28;20193;-60
2021/01/17 08:56:54;;;;;;;2.63;2.42;;;-0.70;99.90;;;;;;5037395;28;20239;-57
2021/01/17 08:59:35;;;;;;;4.50;3.17;;;-0.70;99.90;;;;;;5037346;28;20675;-58
2021/01/17 09:02:03;;;;;;;11.15;4.60;;;-0.80;99.90;;;;;;5036782;28;20201;-57
2021/01/17 09:04:32;;;;;;;4.20;3.15;;;-0.60;99.90;;;;;;5037500;28;20208;-54
2021/01/17 09:07:00;;;;;;;4.32;3.92;;;-0.40;99.90;;;;;;5037510;28;20181;-54
2021/01/17 09:09:27;;;;;;;6.65;3.67;;;-0.40;99.90;;;;;;5037909;28;20597;-55
2021/01/17 09:12:10;;;;;;;2.03;1.83;;;-0.30;99.90;;;;;;5037700;28;20201;-57
2021/01/17 09:14:37;;;;;;;3.45;2.25;;;-0.40;99.90;;;;;;5037785;28;20587;-58
2021/01/17 09:17:09;;;;;;;3.33;1.45;;;-0.50;99.90;;;;;;5037788;28;20189;-57
2021/01/17 09:19:37;;;;;;;3.95;2.70;;;-0.60;99.90;;;;;;5037508;28;20216;-53
2021/01/17 09:22:06;;;;;;;4.32;1.98;;;-0.80;99.90;;;;;;5035618;28;20260;-55
2021/01/17 09:24:35;;;;;;;6.78;2.92;;;-0.70;99.90;;;;;;5035400;28;20174;-57
2021/01/17 09:27:08;;;;;;;4.35;3.97;;;-0.60;99.90;;;;;;5035518;28;20174;-57
2021/01/17 09:29:37;;;;;;;3.72;2.58;;;-0.60;99.90;;;;;;5018142;28;20232;-57
2021/01/17 09:32:08;;;;;;;7.38;3.92;;;-0.70;99.90;;;;;;5035368;28;20659;-58
2021/01/17 09:34:37;;;;;;;5.20;3.25;;;-0.60;99.90;;;;;;5035632;28;20189;-57
2021/01/17 09:37:10;;;;;;;9.00;2.90;;;-0.50;99.90;;;;;;5035742;28;20184;-54
2021/01/17 09:39:40;;;;;;;6.80;3.70;;;-0.50;99.90;;;;;;5035339;28;20201;-55
2021/01/17 09:42:11;;;;;;;5.88;4.72;;;-0.30;99.90;;;;;;5074068;22;20237;-53
2021/01/17 09:44:40;;;;;;;6.35;5.00;;;-0.10;99.90;;;;;;5034854;28;20185;-46
2021/01/17 09:47:15;;;;;;;6.63;4.35;;;0.10;99.90;;;;;;5034843;28;20206;-48
2021/01/17 09:49:43;;;;;;;5.68;3.40;;;0.20;99.90;;;;;;5034688;28;20227;-54
2021/01/17 09:52:16;;;;;;;3.70;3.25;;;0.10;99.90;;;;;;5034742;28;20253;-47
2021/01/17 09:54:43;;;;;;;5.97;4.85;;;0.10;99.90;;;;;;5035495;28;20181;-50
2021/01/17 09:57:20;;;;;;;6.22;3.80;;;0.00;99.90;;;;;;5035043;28;20188;-53
2021/01/17 09:59:49;;;;;;;3.95;2.72;;;0.00;99.90;;;;;;5035271;28;20243;-46
2021/01/17 10:02:18;;;;;;;6.93;5.47;;;-0.20;99.90;;;;;;5035004;28;20681;-53
2021/01/17 10:04:46;;;;;;;2.78;2.42;;;-0.10;99.90;;;;;;5036044;28;20584;-49
2021/01/17 10:07:15;;;;;;;7.88;6.93;;;0.10;99.90;;;;;;5035434;28;20201;-53
2021/01/17 10:09:43;;;;;;;9.07;5.72;;;0.30;99.90;;;;;;5035006;28;20177;-56
2021/01/17 10:12:11;;;;;;;4.30;3.53;;;0.30;99.90;;;;;;5035464;28;20178;-55
2021/01/17 10:14:41;;;;;;;7.78;5.45;;;0.20;99.90;;;;;;5017473;28;20216;-55
2021/01/17 10:17:09;;;;;;;4.80;3.53;;;0.30;99.90;;;;;;5034959;28;20256;-56
2021/01/17 10:19:38;;;;;;;4.40;3.47;;;0.20;99.90;;;;;;5035350;28;20232;-49
2021/01/17 10:22:11;;;;;;;4.93;3.40;;;0.10;99.90;;;;;;5034491;28;20232;-53
2021/01/17 10:24:38;;;;;;;6.50;4.40;;;0.40;99.90;;;;;;5035372;28;20649;-50
2021/01/17 10:27:08;;;;;;;4.78;2.95;;;0.30;99.90;;;;;;5034509;28;20174;-49
2021/01/17 10:29:36;;;;;;;9.73;3.85;;;0.40;99.90;;;;;;5034419;28;20197;-50
2021/01/17 10:32:08;;;;;;;9.68;4.18;;;0.50;99.90;;;;;;5034664;28;20654;-53
2021/01/17 10:34:39;;;;;;;7.90;3.55;;;0.60;99.90;;;;;;5034248;28;20192;-53
2021/01/17 10:37:08;;;;;;;5.10;4.03;;;0.70;99.90;;;;;;5034762;28;20256;-51
2021/01/17 10:39:53;;;;;;;7.70;4.43;;;0.70;99.90;;;;;;5034810;28;20204;-55
2021/01/17 10:42:28;;;;;;;7.10;5.10;;;0.70;99.90;;;;;;5034544;28;20562;-49
2021/01/17 10:45:00;;;;;;;5.70;4.20;;;1.00;99.90;;;;;;5034316;28;20558;-53
2021/01/17 10:47:43;;;;;;;5.47;3.22;;;1.10;99.90;;;;;;5034058;28;20542;-50
2021/01/17 10:50:11;;;;;;;6.25;3.85;;;1.20;99.90;;;;;;5034216;28;20578;-55
2021/01/17 10:52:41;;;;;;;5.10;4.05;;;1.30;99.90;;;;;;5034211;28;20243;-52
2021/01/17 10:55:14;;;;;;;3.60;2.40;;;1.30;99.90;;;;;;5034474;28;20170;-50
2021/01/17 10:57:42;;;;;;;3.30;2.70;;;1.20;99.90;;;;;;5034289;28;20276;-53
2021/01/17 11:00:15;;;;;;;9.15;5.65;;;0.90;99.90;;;;;;5034312;28;20216;-55
2021/01/17 11:03:04;;;;;;;4.80;3.90;;;0.80;99.90;;;;;;5034413;28;20189;-51
2021/01/17 11:05:31;;;;;;;5.65;4.18;;;0.70;99.90;;;;;;5033806;28;20174;-54
2021/01/17 11:07:58;;;;;;;4.82;3.78;;;0.80;99.90;;;;;;5016707;28;20177;-53
2021/01/17 11:10:27;;;;;;;4.15;3.75;;;0.80;99.90;;;;;;5033519;28;20300;-54
2021/01/17 11:12:54;;;;;;;5.35;4.15;;;1.00;99.90;;;;;;5033629;28;20169;-53
2021/01/17 11:15:23;;;;;;;4.85;4.35;;;1.20;99.90;;;;;;5033477;28;20677;-51
2021/01/17 11:17:54;;;;;;;8.07;4.65;;;1.20;99.90;;;;;;5033374;28;20189;-50
2021/01/17 11:20:31;;;;;;;5.57;4.63;;;1.10;99.90;;;;;;5033688;28;20621;-51
2021/01/17 11:23:03;;;;;;;5.03;4.32;;;1.20;99.90;;;;;;5033902;28;20187;-51
2021/01/17 11:25:31;;;;;;;8.63;4.55;;;1.40;99.90;;;;;;5033747;28;20232;-58
2021/01/17 11:28:00;;;;;;;8.63;4.30;;;1.60;99.90;;;;;;5033802;28;20181;-52
2021/01/17 11:30:29;;;;;;;5.63;4.45;;;1.60;99.90;;;;;;5033598;28;20213;-52
2021/01/17 11:33:08;;;;;;;7.45;4.13;;;1.70;99.90;;;;;;5033556;28;20170;-57
2021/01/17 11:35:36;;;;;;;7.90;4.60;;;1.70;99.90;;;;;;5033765;28;20188;-53
2021/01/17 11:38:04;;;;;;;8.40;5.10;;;1.70;99.90;;;;;;5015923;28;20194;-51
2021/01/17 11:40:31;;;;;;;7.72;4.93;;;1.80;99.90;;;;;;5033584;28;20642;-54
2021/01/17 11:43:06;;;;;;;7.68;5.18;;;1.80;99.90;;;;;;5033305;28;20263;-50
2021/01/17 11:45:41;;;;;;;5.50;4.57;;;1.80;99.90;;;;;;5032833;28;20182;-56
2021/01/17 11:48:10;;;;;;;9.02;6.45;;;1.90;99.90;;;;;;5033269;28;20255;-55
2021/01/17 11:50:45;;;;;;;8.55;5.63;;;2.00;99.90;;;;;;5033214;28;20213;-50
2021/01/17 11:53:13;;;;;;;12.23;5.90;;;1.90;99.90;;;;;;5033543;28;20173;-55
2021/01/17 11:55:41;;;;;;;9.13;6.60;;;2.00;99.90;;;;;;5016665;28;20193;-58
2021/01/17 11:58:10;;;;;;;7.65;5.53;;;2.00;99.90;;;;;;5035652;28;20308;-57
2021/01/17 12:00:48;;;;;;;5.70;4.40;;;2.00;99.90;;;;;;5033188;28;20214;-57
2021/01/17 12:03:31;;;;;;;4.10;3.70;;;2.00;99.90;;;;;;5033209;28;20177;-56
2021/01/17 12:06:17;;;;;;;8.45;5.75;;;2.00;99.90;;;;;;5035583;28;20224;-56
2021/01/17 12:08:56;;;;;;;6.32;5.45;;;2.10;99.90;;;;;;5033544;28;20186;-51
2021/01/17 12:11:37;;;;;;;5.53;4.30;;;2.10;99.90;;;;;;5033263;28;20212;-54
2021/01/17 12:14:07;;;;;;;10.02;5.68;;;2.10;99.90;;;;;;5032538;28;20184;-50
2021/01/17 12:16:36;;;;;;;7.30;6.45;;;2.10;99.90;;;;;;5032092;28;20173;-53
2021/01/17 12:19:06;;;;;;;5.05;4.65;;;2.20;99.90;;;;;;5032183;28;20180;-52
2021/01/17 12:21:35;;;;;;;9.70;7.05;;;2.10;99.90;;;;;;5032429;28;20681;-51
2021/01/17 12:24:05;;;;;;;9.30;4.68;;;2.10;99.90;;;;;;5032055;28;20205;-50
2021/01/17 12:26:32;;;;;;;13.38;6.97;;;2.10;99.90;;;;;;5032501;28;20173;-51
2021/01/17 12:28:59;;;;;;;7.80;6.53;;;2.10;99.90;;;;;;5032573;28;20182;-52
2021/01/17 12:31:27;;;;;;;7.65;4.78;;;2.00;99.90;;;;;;5032308;28;20205;-51
2021/01/17 12:33:56;;;;;;;11.48;4.70;;;1.80;99.90;;;;;;5032592;28;20186;-52
2021/01/17 12:36:26;;;;;;;14.25;6.22;;;1.80;99.90;;;;;;5032331;28;20173;-49
2021/01/17 12:38:55;;;;;;;5.28;4.75;;;1.80;99.90;;;;;;5032462;28;20182;-50
2021/01/17 12:41:26;;;;;;;6.40;5.20;;;1.70;99.90;;;;;;5031849;28;20209;-49
2021/01/17 12:43:53;;;;;;;7.25;5.50;;;1.70;99.90;;;;;;5031767;28;20235;-51
2021/01/17 12:46:21;;;;;;;8.48;7.50;;;1.70;99.90;;;;;;5031887;28;20245;-55
2021/01/17 12:48:50;;;;;;;6.88;4.28;;;1.60;99.90;;;;;;5032406;28;20178;-52
2021/01/17 12:51:17;;;;;;;8.20;5.70;;;1.60;99.90;;;;;;5032216;28;20216;-52
2021/01/17 12:53:46;;;;;;;15.45;5.85;;;1.70;99.90;;;;;;5032649;28;20186;-53
2021/01/17 12:56:17;;;;;;;10.50;6.95;;;1.90;99.90;;;;;;5033002;28;20272;-49
2021/01/17 12:58:45;;;;;;;6.93;5.82;;;1.90;99.90;;;;;;5035974;28;20537;-56
2021/01/17 13:01:14;;;;;;;8.52;5.43;;;1.90;99.90;;;;;;5035736;28;20229;-52
2021/01/17 13:03:45;;;;;;;8.38;5.93;;;2.00;99.90;;;;;;5035960;28;20174;-49
2021/01/17 13:06:12;;;;;;;11.60;6.93;;;1.90;99.90;;;;;;5036144;28;20220;-50
2021/01/17 13:08:42;;;;;;;10.60;6.70;;;1.80;99.90;;;;;;5035783;28;20595;-51